createdAt,value
2017-09-03T00:00:06.827Z,1013.02
2017-09-03T00:01:15.758Z,1013.01
2017-09-03T00:02:24.690Z,1012.99
2017-09-03T00:03:33.637Z,1012.99
2017-09-03T00:04:42.522Z,1013
2017-09-03T00:05:51.433Z,1012.96
2017-09-03T00:07:00.259Z,1012.94
2017-09-03T00:08:09.089Z,1012.93
2017-09-03T00:09:17.918Z,1012.92
2017-09-03T00:10:26.747Z,1012.95
2017-09-03T00:11:35.577Z,1012.88
2017-09-03T00:12:44.630Z,1012.92
2017-09-03T00:13:53.528Z,1012.94
2017-09-03T00:15:02.584Z,1012.92
2017-09-03T00:16:11.747Z,1012.93
2017-09-03T00:17:20.620Z,1012.93
2017-09-03T00:18:29.511Z,1012.93
2017-09-03T00:19:38.873Z,1012.87
2017-09-03T00:20:47.852Z,1012.92
2017-09-03T00:21:56.681Z,1012.95
2017-09-03T00:23:05.721Z,1012.95
2017-09-03T00:24:15.006Z,1012.98
2017-09-03T00:25:24.188Z,1012.97
2017-09-03T00:26:33.108Z,1013
2017-09-03T00:27:42.029Z,1012.99
2017-09-03T00:28:50.884Z,1013.05
2017-09-03T00:29:59.860Z,1012.99
2017-09-03T00:31:08.683Z,1012.98
2017-09-03T00:32:17.510Z,1012.94
2017-09-03T00:33:26.570Z,1012.97
2017-09-03T00:34:35.694Z,1012.97
2017-09-03T00:35:44.581Z,1012.97
2017-09-03T00:36:53.405Z,1012.99
2017-09-03T00:38:02.238Z,1012.98
2017-09-03T00:39:11.063Z,1012.99
2017-09-03T00:40:19.892Z,1013
2017-09-03T00:41:28.718Z,1012.96
2017-09-03T00:42:37.552Z,1012.98
2017-09-03T00:43:46.707Z,1012.96
2017-09-03T00:44:55.534Z,1012.96
2017-09-03T00:46:04.363Z,1012.92
2017-09-03T00:47:13.196Z,1012.95
2017-09-03T00:48:22.048Z,1012.95
2017-09-03T00:49:30.851Z,1012.95
2017-09-03T00:50:39.675Z,1012.92
2017-09-03T00:51:48.510Z,1012.94
2017-09-03T00:52:57.341Z,1012.91
2017-09-03T00:54:06.164Z,1012.91
2017-09-03T00:55:14.993Z,1012.88
2017-09-03T00:56:23.825Z,1012.88
2017-09-03T00:57:32.654Z,1012.9
2017-09-03T00:58:41.481Z,1012.89
2017-09-03T00:59:50.316Z,1012.89
2017-09-03T01:00:59.139Z,1012.94
2017-09-03T01:02:07.965Z,1012.91
2017-09-03T01:03:16.797Z,1012.88
2017-09-03T01:04:25.627Z,1012.92
2017-09-03T01:05:34.456Z,1012.91
2017-09-03T01:06:43.282Z,1012.91
2017-09-03T01:07:52.104Z,1012.93
2017-09-03T01:09:00.938Z,1012.88
2017-09-03T01:10:09.765Z,1012.92
2017-09-03T01:11:18.596Z,1012.89
2017-09-03T01:12:27.422Z,1012.92
2017-09-03T01:13:36.254Z,1012.86
2017-09-03T01:14:45.077Z,1012.85
2017-09-03T01:15:53.906Z,1012.88
2017-09-03T01:17:02.732Z,1012.88
2017-09-03T01:18:11.558Z,1012.87
2017-09-03T01:19:20.385Z,1012.83
2017-09-03T01:20:29.210Z,1012.79
2017-09-03T01:21:38.040Z,1012.78
2017-09-03T01:22:46.867Z,1012.78
2017-09-03T01:23:55.694Z,1012.76
2017-09-03T01:25:04.521Z,1012.72
2017-09-03T01:26:13.352Z,1012.73
2017-09-03T01:27:22.178Z,1012.68
2017-09-03T01:28:31.006Z,1012.69
2017-09-03T01:29:40.158Z,1012.71
2017-09-03T01:30:48.992Z,1012.7
2017-09-03T01:31:57.821Z,1012.68
2017-09-03T01:33:06.971Z,1012.7
2017-09-03T01:34:15.799Z,1012.71
2017-09-03T01:35:24.625Z,1012.66
2017-09-03T01:36:33.455Z,1012.67
2017-09-03T01:37:42.283Z,1012.65
2017-09-03T01:38:51.112Z,1012.6
2017-09-03T01:39:59.936Z,1012.61
2017-09-03T01:41:08.767Z,1012.61
2017-09-03T01:42:17.919Z,1012.59
2017-09-03T01:43:26.746Z,1012.61
2017-09-03T01:44:35.572Z,1012.59
2017-09-03T01:45:44.399Z,1012.6
2017-09-03T01:46:53.227Z,1012.59
2017-09-03T01:48:02.054Z,1012.59
2017-09-03T01:49:10.884Z,1012.58
2017-09-03T01:50:19.708Z,1012.59
2017-09-03T01:51:28.534Z,1012.55
2017-09-03T01:52:37.368Z,1012.53
2017-09-03T01:53:46.194Z,1012.56
2017-09-03T01:54:55.021Z,1012.54
2017-09-03T01:56:03.848Z,1012.56
2017-09-03T01:57:12.676Z,1012.6
2017-09-03T01:58:21.506Z,1012.57
2017-09-03T01:59:30.334Z,1012.58
2017-09-03T02:00:39.163Z,1012.57
2017-09-03T02:01:47.990Z,1012.57
2017-09-03T02:02:56.815Z,1012.58
2017-09-03T02:04:05.643Z,1012.55
2017-09-03T02:05:14.473Z,1012.55
2017-09-03T02:06:23.309Z,1012.54
2017-09-03T02:07:32.132Z,1012.55
2017-09-03T02:08:40.962Z,1012.54
2017-09-03T02:09:49.788Z,1012.53
2017-09-03T02:10:58.621Z,1012.53
2017-09-03T02:12:07.449Z,1012.55
2017-09-03T02:13:16.281Z,1012.5
2017-09-03T02:14:25.104Z,1012.51
2017-09-03T02:15:33.929Z,1012.52
2017-09-03T02:16:42.761Z,1012.5
2017-09-03T02:17:51.594Z,1012.45
2017-09-03T02:19:00.437Z,1012.51
2017-09-03T02:20:09.247Z,1012.5
2017-09-03T02:21:18.072Z,1012.51
2017-09-03T02:22:26.898Z,1012.5
2017-09-03T02:23:35.730Z,1012.52
2017-09-03T02:24:44.560Z,1012.52
2017-09-03T02:25:53.386Z,1012.54
2017-09-03T02:27:02.214Z,1012.54
2017-09-03T02:28:11.044Z,1012.5
2017-09-03T02:29:19.873Z,1012.51
2017-09-03T02:30:28.699Z,1012.55
2017-09-03T02:31:37.530Z,1012.52
2017-09-03T02:32:46.356Z,1012.53
2017-09-03T02:33:55.191Z,1012.52
2017-09-03T02:35:04.015Z,1012.5
2017-09-03T02:36:12.844Z,1012.5
2017-09-03T02:37:21.669Z,1012.51
2017-09-03T02:38:30.506Z,1012.52
2017-09-03T02:39:39.332Z,1012.54
2017-09-03T02:40:48.167Z,1012.54
2017-09-03T02:41:56.988Z,1012.53
2017-09-03T02:43:05.819Z,1012.54
2017-09-03T02:44:14.649Z,1012.53
2017-09-03T02:45:23.476Z,1012.51
2017-09-03T02:46:32.625Z,1012.54
2017-09-03T02:47:41.451Z,1012.53
2017-09-03T02:48:50.274Z,1012.49
2017-09-03T02:49:59.101Z,1012.49
2017-09-03T02:51:07.930Z,1012.48
2017-09-03T02:52:16.762Z,1012.5
2017-09-03T02:53:25.584Z,1012.52
2017-09-03T02:54:34.411Z,1012.48
2017-09-03T02:55:43.241Z,1012.51
2017-09-03T02:56:52.069Z,1012.53
2017-09-03T02:58:00.900Z,1012.52
2017-09-03T02:59:09.731Z,1012.54
2017-09-03T03:00:18.556Z,1012.57
2017-09-03T03:01:27.381Z,1012.58
2017-09-03T03:02:36.212Z,1012.56
2017-09-03T03:03:45.041Z,1012.53
2017-09-03T03:04:53.865Z,1012.53
2017-09-03T03:06:02.703Z,1012.53
2017-09-03T03:07:11.526Z,1012.52
2017-09-03T03:08:20.355Z,1012.53
2017-09-03T03:09:29.187Z,1012.54
2017-09-03T03:10:38.017Z,1012.52
2017-09-03T03:11:46.843Z,1012.51
2017-09-03T03:12:55.720Z,1012.5
2017-09-03T03:14:04.553Z,1012.51
2017-09-03T03:15:13.378Z,1012.51
2017-09-03T03:16:22.197Z,1012.52
2017-09-03T03:17:31.027Z,1012.51
2017-09-03T03:18:39.851Z,1012.5
2017-09-03T03:19:48.681Z,1012.51
2017-09-03T03:20:57.505Z,1012.49
2017-09-03T03:22:06.338Z,1012.5
2017-09-03T03:23:15.161Z,1012.45
2017-09-03T03:24:23.992Z,1012.49
2017-09-03T03:25:32.816Z,1012.49
2017-09-03T03:26:41.644Z,1012.46
2017-09-03T03:27:50.474Z,1012.46
2017-09-03T03:28:59.631Z,1012.44
2017-09-03T03:30:08.453Z,1012.4
2017-09-03T03:31:17.606Z,1012.37
2017-09-03T03:32:26.431Z,1012.4
2017-09-03T03:33:35.260Z,1012.44
2017-09-03T03:34:44.091Z,1012.43
2017-09-03T03:35:52.920Z,1012.43
2017-09-03T03:37:01.745Z,1012.43
2017-09-03T03:38:10.571Z,1012.43
2017-09-03T03:39:19.401Z,1012.42
2017-09-03T03:40:28.228Z,1012.42
2017-09-03T03:41:37.059Z,1012.39
2017-09-03T03:42:45.883Z,1012.36
2017-09-03T03:43:54.710Z,1012.38
2017-09-03T03:45:03.864Z,1012.35
2017-09-03T03:46:12.693Z,1012.33
2017-09-03T03:47:21.840Z,1012.34
2017-09-03T03:48:30.664Z,1012.34
2017-09-03T03:49:39.495Z,1012.35
2017-09-03T03:50:48.323Z,1012.33
2017-09-03T03:51:57.148Z,1012.35
2017-09-03T03:53:05.977Z,1012.33
2017-09-03T03:54:14.801Z,1012.37
2017-09-03T03:55:23.627Z,1012.37
2017-09-03T03:56:32.455Z,1012.34
2017-09-03T03:57:41.281Z,1012.32
2017-09-03T03:58:50.109Z,1012.33
2017-09-03T03:59:58.934Z,1012.31
2017-09-03T04:01:08.106Z,1012.32
2017-09-03T04:02:16.935Z,1012.29
2017-09-03T04:03:25.766Z,1012.29
2017-09-03T04:04:34.920Z,1012.26
2017-09-03T04:05:43.746Z,1012.27
2017-09-03T04:06:52.574Z,1012.27
2017-09-03T04:08:01.402Z,1012.22
2017-09-03T04:09:10.227Z,1012.19
2017-09-03T04:10:19.058Z,1012.16
2017-09-03T04:11:27.886Z,1012.13
2017-09-03T04:12:36.708Z,1012.15
2017-09-03T04:13:45.537Z,1012.15
2017-09-03T04:14:54.370Z,1012.15
2017-09-03T04:16:03.513Z,1012.15
2017-09-03T04:17:12.343Z,1012.16
2017-09-03T04:18:21.165Z,1012.2
2017-09-03T04:19:29.995Z,1012.19
2017-09-03T04:20:39.146Z,1012.22
2017-09-03T04:21:48.300Z,1012.25
2017-09-03T04:22:57.124Z,1012.27
2017-09-03T04:24:05.956Z,1012.3
2017-09-03T04:25:14.778Z,1012.26
2017-09-03T04:26:23.602Z,1012.23
2017-09-03T04:27:32.433Z,1012.22
2017-09-03T04:28:41.258Z,1012.2
2017-09-03T04:29:50.085Z,1012.21
2017-09-03T04:30:58.927Z,1012.22
2017-09-03T04:32:07.733Z,1012.19
2017-09-03T04:33:16.560Z,1012.15
2017-09-03T04:34:25.385Z,1012.16
2017-09-03T04:35:34.213Z,1012.17
2017-09-03T04:36:43.043Z,1012.2
2017-09-03T04:37:51.867Z,1012.19
2017-09-03T04:39:00.696Z,1012.18
2017-09-03T04:40:09.521Z,1012.21
2017-09-03T04:41:18.354Z,1012.17
2017-09-03T04:42:27.179Z,1012.15
2017-09-03T04:43:36.004Z,1012.19
2017-09-03T04:44:44.836Z,1012.19
2017-09-03T04:45:53.662Z,1012.17
2017-09-03T04:47:02.492Z,1012.17
2017-09-03T04:48:11.314Z,1012.2
2017-09-03T04:49:20.141Z,1012.21
2017-09-03T04:50:28.966Z,1012.21
2017-09-03T04:51:37.796Z,1012.19
2017-09-03T04:52:46.624Z,1012.16
2017-09-03T04:53:55.780Z,1012.15
2017-09-03T04:55:04.608Z,1012.18
2017-09-03T04:56:13.430Z,1012.2
2017-09-03T04:57:22.259Z,1012.18
2017-09-03T04:58:31.413Z,1012.15
2017-09-03T04:59:40.249Z,1012.18
2017-09-03T05:00:49.076Z,1012.16
2017-09-03T05:01:57.903Z,1012.16
2017-09-03T05:03:06.730Z,1012.19
2017-09-03T05:04:15.609Z,1012.21
2017-09-03T05:05:24.545Z,1012.2
2017-09-03T05:06:33.410Z,1012.18
2017-09-03T05:07:42.307Z,1012.18
2017-09-03T05:08:51.511Z,1012.17
2017-09-03T05:10:00.656Z,1012.2
2017-09-03T05:11:09.694Z,1012.17
2017-09-03T05:12:18.981Z,1012.15
2017-09-03T05:13:27.826Z,1012.14
2017-09-03T05:14:36.698Z,1012.11
2017-09-03T05:15:45.612Z,1012.12
2017-09-03T05:16:54.478Z,1012.13
2017-09-03T05:18:03.431Z,1012.14
2017-09-03T05:19:12.385Z,1012.13
2017-09-03T05:20:21.323Z,1012.12
2017-09-03T05:21:30.226Z,1012.08
2017-09-03T05:22:39.213Z,1012.09
2017-09-03T05:23:48.128Z,1012.05
2017-09-03T05:24:57.514Z,1012.01
2017-09-03T05:26:07.125Z,1012.05
2017-09-03T05:27:16.021Z,1012.07
2017-09-03T05:28:24.849Z,1012.09
2017-09-03T05:29:34.029Z,1012.07
2017-09-03T05:30:42.855Z,1012.06
2017-09-03T05:31:51.752Z,1012.04
2017-09-03T05:33:00.581Z,1012.01
2017-09-03T05:34:09.450Z,1012.01
2017-09-03T05:35:18.300Z,1012.01
2017-09-03T05:36:27.134Z,1012
2017-09-03T05:37:36.044Z,1012
2017-09-03T05:38:44.937Z,1011.98
2017-09-03T05:39:53.858Z,1011.99
2017-09-03T05:41:02.687Z,1011.94
2017-09-03T05:42:11.694Z,1011.93
2017-09-03T05:43:20.597Z,1011.95
2017-09-03T05:44:29.537Z,1011.87
2017-09-03T05:45:38.397Z,1011.9
2017-09-03T05:46:47.223Z,1011.9
2017-09-03T05:47:56.118Z,1011.88
2017-09-03T05:49:04.986Z,1011.89
2017-09-03T05:50:13.890Z,1011.9
2017-09-03T05:51:22.716Z,1011.88
2017-09-03T05:52:31.621Z,1011.87
2017-09-03T05:53:40.452Z,1011.89
2017-09-03T05:54:49.420Z,1011.93
2017-09-03T05:55:58.271Z,1011.91
2017-09-03T05:57:07.143Z,1011.89
2017-09-03T05:58:16.058Z,1011.9
2017-09-03T05:59:24.950Z,1011.94
2017-09-03T06:00:34.197Z,1011.9
2017-09-03T06:01:43.475Z,1011.94
2017-09-03T06:02:52.399Z,1011.91
2017-09-03T06:04:01.327Z,1011.91
2017-09-03T06:05:10.201Z,1011.91
2017-09-03T06:06:19.213Z,1011.91
2017-09-03T06:07:28.879Z,1011.87
2017-09-03T06:08:38.051Z,1011.87
2017-09-03T06:09:46.921Z,1011.93
2017-09-03T06:10:55.805Z,1011.94
2017-09-03T06:12:04.635Z,1011.96
2017-09-03T06:13:13.828Z,1011.96
2017-09-03T06:14:22.667Z,1011.95
2017-09-03T06:15:32.159Z,1011.92
2017-09-03T06:16:40.982Z,1011.96
2017-09-03T06:17:49.808Z,1011.93
2017-09-03T06:18:58.639Z,1011.98
2017-09-03T06:20:07.473Z,1011.98
2017-09-03T06:21:16.295Z,1011.98
2017-09-03T06:22:25.122Z,1012
2017-09-03T06:23:33.942Z,1012
2017-09-03T06:24:42.806Z,1011.96
2017-09-03T06:25:51.610Z,1011.97
2017-09-03T06:27:00.438Z,1011.94
2017-09-03T06:28:09.268Z,1011.99
2017-09-03T06:29:18.098Z,1011.95
2017-09-03T06:30:26.930Z,1011.97
2017-09-03T06:31:35.758Z,1011.96
2017-09-03T06:32:44.584Z,1011.98
2017-09-03T06:33:53.413Z,1011.96
2017-09-03T06:35:02.252Z,1011.97
2017-09-03T06:36:11.080Z,1011.98
2017-09-03T06:37:19.914Z,1011.94
2017-09-03T06:38:28.742Z,1012
2017-09-03T06:39:37.568Z,1011.99
2017-09-03T06:40:46.401Z,1011.98
2017-09-03T06:41:55.564Z,1011.98
2017-09-03T06:43:04.390Z,1011.99
2017-09-03T06:44:13.217Z,1012.03
2017-09-03T06:45:22.043Z,1012.02
2017-09-03T06:46:30.883Z,1012.01
2017-09-03T06:47:39.713Z,1012.06
2017-09-03T06:48:48.547Z,1012.06
2017-09-03T06:49:57.373Z,1012.06
2017-09-03T06:51:06.530Z,1012.07
2017-09-03T06:52:15.351Z,1012.06
2017-09-03T06:53:24.181Z,1012.11
2017-09-03T06:54:33.071Z,1012.12
2017-09-03T06:55:41.900Z,1012.13
2017-09-03T06:56:50.729Z,1012.14
2017-09-03T06:57:59.566Z,1012.13
2017-09-03T06:59:08.394Z,1012.16
2017-09-03T07:00:17.260Z,1012.18
2017-09-03T07:01:26.137Z,1012.17
2017-09-03T07:02:36.267Z,1012.18
2017-09-03T07:03:46.674Z,1012.19
2017-09-03T07:04:56.048Z,1012.23
2017-09-03T07:06:04.894Z,1012.16
2017-09-03T07:07:13.728Z,1012.15
2017-09-03T07:08:22.641Z,1012.18
2017-09-03T07:09:31.613Z,1012.12
2017-09-03T07:10:40.680Z,1012.19
2017-09-03T07:11:49.836Z,1012.17
2017-09-03T07:12:58.986Z,1012.21
2017-09-03T07:14:08.038Z,1012.22
2017-09-03T07:15:17.012Z,1012.23
2017-09-03T10:31:23.080Z,1011.58
2017-09-03T10:32:31.989Z,1011.62
2017-09-03T10:33:41.202Z,1011.66
2017-09-03T10:34:50.035Z,1011.72
2017-09-03T10:35:58.906Z,1011.7
2017-09-03T10:37:07.765Z,1011.71
2017-09-03T10:38:16.598Z,1011.77
2017-09-03T10:39:25.455Z,1011.79
2017-09-03T10:40:34.320Z,1011.74
2017-09-03T10:41:43.268Z,1011.68
2017-09-03T10:42:52.180Z,1011.64
2017-09-03T10:44:01.044Z,1011.57
2017-09-03T10:45:10.085Z,1011.64
2017-09-03T10:46:19.861Z,1011.63
2017-09-03T10:47:28.693Z,1011.6
2017-09-03T10:48:37.573Z,1011.56
2017-09-03T10:49:46.441Z,1011.56
2017-09-03T10:50:55.378Z,1011.56
2017-09-03T10:52:04.331Z,1011.53
2017-09-03T10:53:13.192Z,1011.52
2017-09-03T10:54:22.278Z,1011.52
2017-09-03T10:55:31.509Z,1011.49
2017-09-03T10:56:40.355Z,1011.48
2017-09-03T10:57:49.360Z,1011.49
2017-09-03T10:58:58.226Z,1011.47
2017-09-03T11:00:07.116Z,1011.45
2017-09-03T11:01:15.954Z,1011.43
2017-09-03T11:02:24.784Z,1011.41
2017-09-03T11:03:33.614Z,1011.42
2017-09-03T11:04:42.441Z,1011.42
2017-09-03T11:05:51.277Z,1011.42
2017-09-03T11:07:00.110Z,1011.45
2017-09-03T11:08:08.938Z,1011.41
2017-09-03T11:09:17.762Z,1011.39
2017-09-03T11:10:26.924Z,1011.4
2017-09-03T11:11:35.755Z,1011.38
2017-09-03T11:12:44.586Z,1011.4
2017-09-03T11:13:53.419Z,1011.38
2017-09-03T11:15:02.242Z,1011.35
2017-09-03T11:16:11.143Z,1011.39
2017-09-03T11:17:20.024Z,1011.33
2017-09-03T11:18:28.855Z,1011.27
2017-09-03T11:19:37.870Z,1011.27
2017-09-03T11:20:46.700Z,1011.22
2017-09-03T11:21:55.630Z,1011.2
2017-09-03T11:23:04.454Z,1011.2
2017-09-03T11:24:13.694Z,1011.18
2017-09-03T11:25:22.615Z,1011.22
2017-09-03T11:26:31.484Z,1011.12
2017-09-03T11:27:40.387Z,1011.16
2017-09-03T11:28:49.567Z,1011.15
2017-09-03T11:29:58.731Z,1011.15
2017-09-03T11:31:07.624Z,1011.13
2017-09-03T11:32:16.499Z,1011.14
2017-09-03T11:33:25.443Z,1011.16
2017-09-03T11:34:34.273Z,1011.18
2017-09-03T11:35:43.202Z,1011.12
2017-09-03T11:36:52.366Z,1011.11
2017-09-03T11:38:01.279Z,1011.08
2017-09-03T11:39:10.142Z,1011.08
2017-09-03T11:40:18.974Z,1011.06
2017-09-03T11:41:27.890Z,1011.07
2017-09-03T11:42:36.721Z,1011.06
2017-09-03T11:43:45.950Z,1011.08
2017-09-03T11:44:55.136Z,1011.06
2017-09-03T11:46:04.026Z,1011.05
2017-09-03T11:47:12.944Z,1011.03
2017-09-03T11:48:21.846Z,1010.96
2017-09-03T11:49:30.674Z,1011
2017-09-03T11:50:39.547Z,1011
2017-09-03T11:51:48.382Z,1010.97
2017-09-03T11:52:57.258Z,1010.97
2017-09-03T11:54:06.420Z,1010.92
2017-09-03T11:55:15.316Z,1010.87
2017-09-03T11:56:24.332Z,1010.88
2017-09-03T11:57:33.917Z,1010.87
2017-09-03T11:58:43.129Z,1010.9
2017-09-03T11:59:51.956Z,1010.91
2017-09-03T12:01:00.789Z,1010.93
2017-09-03T12:02:09.619Z,1010.88
2017-09-03T12:03:18.451Z,1010.82
2017-09-03T12:04:27.282Z,1010.79
2017-09-03T12:05:36.116Z,1010.82
2017-09-03T12:06:44.948Z,1010.79
2017-09-03T12:07:53.787Z,1010.81
2017-09-03T12:09:02.644Z,1010.84
2017-09-03T12:10:11.473Z,1010.84
2017-09-03T12:11:20.305Z,1010.82
2017-09-03T12:12:29.133Z,1010.78
2017-09-03T12:13:37.967Z,1010.75
2017-09-03T12:14:46.799Z,1010.7
2017-09-03T12:15:55.627Z,1010.69
2017-09-03T12:17:04.455Z,1010.71
2017-09-03T12:18:13.285Z,1010.63
2017-09-03T12:19:22.117Z,1010.63
2017-09-03T12:20:30.947Z,1010.56
2017-09-03T12:21:39.779Z,1010.58
2017-09-03T12:22:48.606Z,1010.57
2017-09-03T12:23:57.434Z,1010.58
2017-09-03T12:25:06.264Z,1010.54
2017-09-03T12:26:15.099Z,1010.6
2017-09-03T12:27:23.937Z,1010.57
2017-09-03T12:28:32.763Z,1010.52
2017-09-03T12:29:41.606Z,1010.49
2017-09-03T12:30:50.433Z,1010.52
2017-09-03T12:31:59.263Z,1010.44
2017-09-03T12:33:08.094Z,1010.43
2017-09-03T12:34:16.930Z,1010.41
2017-09-03T12:35:25.762Z,1010.41
2017-09-03T12:36:34.591Z,1010.35
2017-09-03T12:37:43.457Z,1010.38
2017-09-03T12:38:52.262Z,1010.37
2017-09-03T12:40:01.097Z,1010.35
2017-09-03T12:41:09.937Z,1010.29
2017-09-03T12:42:18.768Z,1010.33
2017-09-03T12:43:27.924Z,1010.25
2017-09-03T12:44:36.748Z,1010.31
2017-09-03T12:45:45.582Z,1010.33
2017-09-03T12:46:54.416Z,1010.31
2017-09-03T12:48:03.251Z,1010.3
2017-09-03T12:49:12.090Z,1010.32
2017-09-03T12:50:20.920Z,1010.31
2017-09-03T12:51:29.753Z,1010.31
2017-09-03T12:52:38.592Z,1010.32
2017-09-03T12:53:47.426Z,1010.28
2017-09-03T12:54:56.330Z,1010.33
2017-09-03T12:56:05.648Z,1010.28
2017-09-03T12:57:14.476Z,1010.29
2017-09-03T12:58:23.314Z,1010.27
2017-09-03T12:59:32.140Z,1010.25
2017-09-03T13:00:40.969Z,1010.2
2017-09-03T13:01:49.803Z,1010.23
2017-09-03T13:02:58.634Z,1010.22
2017-09-03T13:04:07.471Z,1010.2
2017-09-03T13:05:16.330Z,1010.22
2017-09-03T13:06:25.232Z,1010.22
2017-09-03T13:07:34.143Z,1010.22
2017-09-03T13:08:43.036Z,1010.24
2017-09-03T13:09:52.008Z,1010.19
2017-09-03T13:11:00.843Z,1010.22
2017-09-03T13:12:09.671Z,1010.22
2017-09-03T13:13:18.819Z,1010.21
2017-09-03T13:14:27.728Z,1010.22
2017-09-03T13:15:36.540Z,1010.2
2017-09-03T13:16:45.569Z,1010.19
2017-09-03T13:17:54.396Z,1010.16
2017-09-03T13:19:03.321Z,1010.17
2017-09-03T13:20:12.153Z,1010.09
2017-09-03T13:21:21.142Z,1010.11
2017-09-03T13:22:30.053Z,1010.08
2017-09-03T13:23:39.149Z,1010.03
2017-09-03T13:24:48.005Z,1010.06
2017-09-03T13:25:56.912Z,1010.06
2017-09-03T13:27:06.192Z,1010.04
2017-09-03T13:28:15.021Z,1010.04
2017-09-03T13:29:24.030Z,1010.03
2017-09-03T13:30:32.860Z,1010.02
2017-09-03T13:31:41.831Z,1010.01
2017-09-03T13:32:50.662Z,1010.04
2017-09-03T13:33:59.587Z,1010.01
2017-09-03T13:35:08.446Z,1010.03
2017-09-03T13:36:17.276Z,1010
2017-09-03T13:37:26.176Z,1010
2017-09-03T13:38:35.159Z,1009.98
2017-09-03T13:39:44.293Z,1009.99
2017-09-03T13:40:53.187Z,1009.97
2017-09-03T13:42:02.047Z,1009.93
2017-09-03T13:43:10.949Z,1009.98
2017-09-03T13:44:19.814Z,1010
2017-09-03T13:45:28.639Z,1009.98
2017-09-03T13:46:37.548Z,1010.03
2017-09-03T13:47:46.444Z,1010.01
2017-09-03T13:48:55.845Z,1009.98
2017-09-03T13:50:04.671Z,1010.04
2017-09-03T13:51:13.595Z,1009.92
2017-09-03T13:52:22.938Z,1009.99
2017-09-03T13:53:31.772Z,1009.92
2017-09-03T13:54:40.599Z,1009.96
2017-09-03T13:55:49.431Z,1009.96
2017-09-03T13:56:58.265Z,1009.98
2017-09-03T13:58:07.102Z,1009.94
2017-09-03T13:59:16.028Z,1009.93
2017-09-03T14:00:24.856Z,1009.92
2017-09-03T14:01:33.879Z,1009.88
2017-09-03T14:02:42.705Z,1009.93
2017-09-03T14:03:51.706Z,1009.9
2017-09-03T14:05:00.559Z,1009.91
2017-09-03T14:06:09.393Z,1009.93
2017-09-03T14:07:18.382Z,1009.88
2017-09-03T14:08:27.276Z,1009.84
2017-09-03T14:09:36.178Z,1009.83
2017-09-03T14:10:45.010Z,1009.83
2017-09-03T14:11:53.912Z,1009.87
2017-09-03T14:13:02.740Z,1009.79
2017-09-03T14:14:11.604Z,1009.82
2017-09-03T14:15:20.465Z,1009.78
2017-09-03T14:16:29.297Z,1009.78
2017-09-03T14:17:38.178Z,1009.77
2017-09-03T14:18:47.006Z,1009.8
2017-09-03T14:19:55.884Z,1009.79
2017-09-03T14:21:04.714Z,1009.83
2017-09-03T14:22:13.892Z,1009.78
2017-09-03T14:23:22.722Z,1009.77
2017-09-03T14:24:31.648Z,1009.79
2017-09-03T14:25:40.498Z,1009.82
2017-09-03T14:26:49.330Z,1009.8
2017-09-03T14:27:58.262Z,1009.81
2017-09-03T14:29:07.093Z,1009.8
2017-09-03T14:30:16.002Z,1009.78
2017-09-03T14:31:24.835Z,1009.78
2017-09-03T14:32:34.053Z,1009.8
2017-09-03T14:33:42.922Z,1009.8
2017-09-03T14:34:51.825Z,1009.79
2017-09-03T14:36:01.344Z,1009.77
2017-09-03T14:37:10.250Z,1009.79
2017-09-03T14:38:19.615Z,1009.77
2017-09-03T14:39:29.633Z,1009.76
2017-09-03T14:40:38.784Z,1009.73
2017-09-03T14:41:47.615Z,1009.77
2017-09-03T14:42:56.453Z,1009.78
2017-09-03T14:44:05.384Z,1009.77
2017-09-03T14:45:14.319Z,1009.77
2017-09-03T14:46:23.161Z,1009.78
2017-09-03T14:47:31.987Z,1009.79
2017-09-03T14:48:41.192Z,1009.78
2017-09-03T14:49:50.134Z,1009.76
2017-09-03T14:50:59.124Z,1009.76
2017-09-03T14:52:07.967Z,1009.84
2017-09-03T14:53:16.797Z,1009.79
2017-09-03T14:54:25.622Z,1009.73
2017-09-03T14:55:34.456Z,1009.75
2017-09-03T14:56:43.466Z,1009.71
2017-09-03T14:57:52.294Z,1009.71
2017-09-03T14:59:01.377Z,1009.72
2017-09-03T15:00:10.239Z,1009.74
2017-09-03T15:01:19.070Z,1009.73
2017-09-03T15:02:28.295Z,1009.71
2017-09-03T15:03:37.121Z,1009.68
2017-09-03T15:04:45.963Z,1009.72
2017-09-03T15:05:54.863Z,1009.69
2017-09-03T15:07:04.069Z,1009.71
2017-09-03T15:08:13.304Z,1009.73
2017-09-03T15:09:22.307Z,1009.71
2017-09-03T15:10:31.264Z,1009.77
2017-09-03T15:11:40.275Z,1009.74
2017-09-03T15:12:49.226Z,1009.75
2017-09-03T15:13:58.061Z,1009.75
2017-09-03T15:15:06.997Z,1009.76
2017-09-03T15:16:16.230Z,1009.81
2017-09-03T15:17:25.151Z,1009.78
2017-09-03T15:18:34.010Z,1009.77
2017-09-03T15:19:42.916Z,1009.75
2017-09-03T15:20:51.753Z,1009.77
2017-09-03T15:22:00.635Z,1009.79
2017-09-03T15:23:09.814Z,1009.77
2017-09-03T15:24:18.760Z,1009.77
2017-09-03T15:25:27.938Z,1009.78
2017-09-03T15:26:36.768Z,1009.77
2017-09-03T15:27:45.660Z,1009.75
2017-09-03T15:28:54.545Z,1009.75
2017-09-03T15:30:03.521Z,1009.73
2017-09-03T15:31:12.434Z,1009.77
2017-09-03T15:32:21.310Z,1009.74
2017-09-03T15:33:30.138Z,1009.73
2017-09-03T15:34:39.297Z,1009.71
2017-09-03T15:35:48.200Z,1009.72
2017-09-03T15:36:57.096Z,1009.68
2017-09-03T15:38:05.935Z,1009.67
2017-09-03T15:39:15.090Z,1009.67
2017-09-03T15:40:24.066Z,1009.68
2017-09-03T15:41:33.020Z,1009.66
2017-09-03T15:42:41.936Z,1009.67
2017-09-03T15:43:50.822Z,1009.67
2017-09-03T15:44:59.724Z,1009.72
2017-09-03T15:46:08.571Z,1009.72
2017-09-03T15:47:17.485Z,1009.7
2017-09-03T15:48:26.316Z,1009.76
2017-09-03T15:49:35.149Z,1009.73
2017-09-03T15:50:43.983Z,1009.73
2017-09-03T15:51:52.814Z,1009.73
2017-09-03T15:53:01.791Z,1009.74
2017-09-03T15:54:10.621Z,1009.78
2017-09-03T15:55:19.782Z,1009.77
2017-09-03T15:56:28.617Z,1009.77
2017-09-03T15:57:37.450Z,1009.79
2017-09-03T15:58:46.285Z,1009.79
2017-09-03T15:59:55.116Z,1009.8
2017-09-03T16:01:03.943Z,1009.77
2017-09-03T16:02:12.781Z,1009.82
2017-09-03T16:03:21.611Z,1009.82
2017-09-03T16:04:30.445Z,1009.8
2017-09-03T16:05:39.275Z,1009.81
2017-09-03T16:06:48.108Z,1009.81
2017-09-03T16:07:56.959Z,1009.81
2017-09-03T16:09:05.793Z,1009.82
2017-09-03T16:10:14.631Z,1009.83
2017-09-03T16:11:23.457Z,1009.85
2017-09-03T16:12:32.286Z,1009.87
2017-09-03T16:13:41.442Z,1009.89
2017-09-03T16:14:50.276Z,1009.89
2017-09-03T16:15:59.111Z,1009.87
2017-09-03T16:17:07.942Z,1009.91
2017-09-03T16:18:16.773Z,1009.91
2017-09-03T16:19:25.604Z,1009.94
2017-09-03T16:20:34.439Z,1009.98
2017-09-03T16:21:43.592Z,1009.97
2017-09-03T16:22:52.424Z,1009.99
2017-09-03T16:24:01.256Z,1009.97
2017-09-03T16:25:10.407Z,1009.98
2017-09-03T16:26:19.241Z,1009.97
2017-09-03T16:27:28.069Z,1009.95
2017-09-03T16:28:36.902Z,1009.95
2017-09-03T16:29:45.737Z,1009.98
2017-09-03T16:30:54.562Z,1009.99
2017-09-03T16:32:03.748Z,1010.03
2017-09-03T16:33:12.576Z,1009.97
2017-09-03T16:34:21.404Z,1010.02
2017-09-03T16:35:30.236Z,1009.99
2017-09-03T16:36:39.069Z,1009.98
2017-09-03T16:37:47.903Z,1010.02
2017-09-03T16:38:56.732Z,1010
2017-09-03T16:40:05.569Z,1010.02
2017-09-03T16:41:14.500Z,1010.01
2017-09-03T16:42:23.402Z,1010.03
2017-09-03T16:43:32.265Z,1010.04
2017-09-03T16:44:41.118Z,1009.97
2017-09-03T16:45:50.154Z,1009.98
2017-09-03T16:46:59.065Z,1009.99
2017-09-03T16:48:07.919Z,1009.94
2017-09-03T16:49:16.748Z,1009.98
2017-09-03T16:50:25.583Z,1009.97
2017-09-03T16:51:34.463Z,1009.95
2017-09-03T16:52:43.310Z,1009.94
2017-09-03T16:53:52.143Z,1009.97
2017-09-03T16:55:00.980Z,1009.93
2017-09-03T16:56:09.992Z,1009.93
2017-09-03T16:57:18.855Z,1009.92
2017-09-03T16:58:27.741Z,1009.92
2017-09-03T16:59:36.975Z,1009.94
2017-09-03T17:00:45.881Z,1009.92
2017-09-03T17:01:54.715Z,1009.9
2017-09-03T17:03:03.670Z,1009.92
2017-09-03T17:04:12.503Z,1009.93
2017-09-03T17:05:21.346Z,1009.92
2017-09-03T17:06:30.204Z,1009.91
2017-09-03T17:07:39.062Z,1009.87
2017-09-03T17:08:47.898Z,1009.88
2017-09-03T17:09:56.745Z,1009.86
2017-09-03T17:11:05.596Z,1009.86